createdAt,value
2023-03-11T00:02:24.781Z,2.97
2023-03-11T00:04:51.381Z,1.20
2023-03-11T00:07:17.913Z,2.00
2023-03-11T00:09:44.431Z,2.13
2023-03-11T00:12:10.893Z,0.90
2023-03-11T00:14:37.435Z,0.90
2023-03-11T00:17:04.011Z,2.03
2023-03-11T00:19:30.529Z,0.93
2023-03-11T00:21:58.022Z,0.88
2023-03-11T00:24:24.552Z,1.75
2023-03-11T00:26:51.067Z,0.93
2023-03-11T00:29:17.626Z,0.57
2023-03-11T00:31:44.480Z,1.98
2023-03-11T00:34:11.028Z,0.95
2023-03-11T00:36:37.640Z,1.17
2023-03-11T00:39:08.256Z,1.40
2023-03-11T00:41:35.179Z,2.13
2023-03-11T00:44:01.681Z,2.47
2023-03-11T00:46:29.859Z,0.80
2023-03-11T00:48:58.882Z,0.90
2023-03-11T00:51:28.215Z,1.25
2023-03-11T00:53:57.894Z,1.85
2023-03-11T00:56:24.458Z,1.42
2023-03-11T00:58:50.935Z,0.68
2023-03-11T01:01:19.447Z,2.95
2023-03-11T01:03:46.799Z,1.58
2023-03-11T01:06:13.595Z,0.60
2023-03-11T01:08:40.557Z,2.50
2023-03-11T01:11:08.821Z,1.52
2023-03-11T01:13:35.878Z,0.80
2023-03-11T01:16:03.185Z,1.85
2023-03-11T01:18:29.792Z,2.67
2023-03-11T01:20:56.323Z,0.68
2023-03-11T01:23:22.960Z,0.60
2023-03-11T01:25:49.559Z,1.55
2023-03-11T01:28:18.105Z,1.88
2023-03-11T01:30:45.406Z,1.83
2023-03-11T01:33:17.651Z,0.73
2023-03-11T01:35:45.046Z,1.52
2023-03-11T01:38:15.353Z,2.47
2023-03-11T01:40:45.363Z,2.55
2023-03-11T01:43:39.924Z,1.38
2023-03-11T01:46:09.276Z,4.25
2023-03-11T01:48:35.960Z,1.02
2023-03-11T01:51:02.594Z,1.63
2023-03-11T01:53:29.401Z,3.38
2023-03-11T01:55:55.974Z,1.67
2023-03-11T01:58:28.616Z,2.08
2023-03-11T02:01:00.514Z,1.55
2023-03-11T02:03:33.840Z,2.33
2023-03-11T02:06:07.703Z,1.52
2023-03-11T02:08:36.805Z,1.38
2023-03-11T02:11:08.047Z,2.10
2023-03-11T02:13:36.329Z,5.38
2023-03-11T02:16:03.656Z,4.75
2023-03-11T02:18:30.587Z,1.85
2023-03-11T02:21:26.861Z,2.38
2023-03-11T02:23:53.379Z,3.08
2023-03-11T02:26:28.276Z,3.20
2023-03-11T02:31:23.951Z,1.42
2023-03-11T02:33:54.151Z,2.05
2023-03-11T02:36:46.809Z,5.88
2023-03-11T02:39:13.389Z,1.20
2023-03-11T02:41:44.076Z,2.53
2023-03-11T02:44:13.798Z,0.88
2023-03-11T02:46:42.678Z,4.10
2023-03-11T02:49:10.239Z,0.80
2023-03-11T02:51:36.804Z,2.30
2023-03-11T02:54:05.723Z,3.90
2023-03-11T02:56:32.563Z,1.15
2023-03-11T02:58:59.269Z,3.05
2023-03-11T03:01:25.896Z,1.70
2023-03-11T03:03:52.648Z,2.67
2023-03-11T03:06:19.411Z,2.85
2023-03-11T03:08:47.089Z,1.80
2023-03-11T03:11:13.896Z,2.33
2023-03-11T03:13:40.449Z,6.03
2023-03-11T03:16:09.990Z,2.25
2023-03-11T03:18:37.511Z,1.10
2023-03-11T03:21:04.902Z,2.35
2023-03-11T03:23:37.682Z,1.08
2023-03-11T03:26:05.701Z,1.10
2023-03-11T03:28:32.966Z,1.10
2023-03-11T03:31:07.837Z,1.42
2023-03-11T03:36:01.035Z,1.55
2023-03-11T03:38:27.640Z,1.05
2023-03-11T03:40:54.205Z,0.88
2023-03-11T03:43:20.766Z,4.80
2023-03-11T03:45:58.014Z,4.80
2023-03-11T03:48:24.845Z,1.30
2023-03-11T03:50:51.503Z,5.38
2023-03-11T03:53:18.206Z,2.22
2023-03-11T03:55:44.714Z,1.17
2023-03-11T03:58:11.272Z,1.25
2023-03-11T04:00:37.902Z,1.77
2023-03-11T04:03:07.014Z,1.30
2023-03-11T04:05:33.856Z,3.80
2023-03-11T04:08:00.712Z,2.17
2023-03-11T04:10:27.740Z,1.70
2023-03-11T04:12:54.238Z,1.85
2023-03-11T04:15:20.892Z,2.28
2023-03-11T04:17:47.445Z,2.92
2023-03-11T04:20:13.993Z,2.25
2023-03-11T04:22:40.567Z,3.13
2023-03-11T04:25:07.692Z,2.33
2023-03-11T04:27:34.310Z,2.42
2023-03-11T04:30:00.870Z,2.25
2023-03-11T04:32:27.473Z,2.42
2023-03-11T04:34:54.005Z,5.18
2023-03-11T04:37:20.595Z,2.65
2023-03-11T04:39:47.173Z,8.85
2023-03-11T04:42:14.120Z,2.47
2023-03-11T04:44:40.669Z,3.20
2023-03-11T04:47:07.365Z,2.97
2023-03-11T04:49:33.928Z,3.58
2023-03-11T04:52:00.500Z,2.65
2023-03-11T04:54:27.021Z,2.90
2023-03-11T04:56:53.653Z,4.60
2023-03-11T04:59:20.215Z,3.17
2023-03-11T05:01:46.849Z,3.45
2023-03-11T05:04:13.463Z,3.60
2023-03-11T05:06:40.063Z,5.10
2023-03-11T05:09:06.601Z,3.42
2023-03-11T05:11:33.124Z,5.15
2023-03-11T05:13:59.708Z,4.00
2023-03-11T05:16:26.278Z,4.72
2023-03-11T05:18:52.872Z,3.20
2023-03-11T05:21:19.377Z,3.20
2023-03-11T05:23:45.919Z,5.03
2023-03-11T05:26:12.579Z,4.22
2023-03-11T05:28:39.252Z,3.50
2023-03-11T05:31:10.385Z,4.32
2023-03-11T05:33:37.205Z,4.10
2023-03-11T05:36:09.332Z,3.13
2023-03-11T05:38:36.877Z,3.88
2023-03-11T05:41:03.544Z,4.93
2023-03-11T05:43:30.078Z,4.35
2023-03-11T05:45:56.598Z,4.45
2023-03-11T05:48:23.111Z,4.03
2023-03-11T05:50:49.650Z,4.00
2023-03-11T05:53:16.260Z,3.95
2023-03-11T05:55:42.742Z,3.85
2023-03-11T05:58:09.414Z,4.45
2023-03-11T06:00:36.929Z,4.05
2023-03-11T06:03:03.603Z,4.90
2023-03-11T06:05:30.124Z,5.75
2023-03-11T06:07:56.668Z,5.47
2023-03-11T06:10:23.314Z,3.70
2023-03-11T06:12:52.960Z,4.13
2023-03-11T06:15:19.552Z,6.32
2023-03-11T06:17:48.181Z,4.10
2023-03-11T06:20:14.792Z,4.60
2023-03-11T06:22:41.340Z,4.80
2023-03-11T06:25:08.355Z,4.07
2023-03-11T06:27:37.263Z,6.35
2023-03-11T06:30:04.540Z,4.40
2023-03-11T06:32:31.165Z,4.30
2023-03-11T06:34:57.769Z,4.80
2023-03-11T06:37:25.682Z,5.63
2023-03-11T06:39:56.865Z,4.30
2023-03-11T06:42:26.887Z,4.50
2023-03-11T06:44:53.436Z,4.65
2023-03-11T06:47:19.959Z,4.38
2023-03-11T06:49:46.538Z,6.45
2023-03-11T06:52:13.192Z,4.68
2023-03-11T06:54:40.064Z,6.75
2023-03-11T06:57:10.187Z,5.45
2023-03-11T06:59:37.157Z,5.35
2023-03-11T07:02:05.862Z,3.58
2023-03-11T07:04:33.100Z,5.07
2023-03-11T07:06:59.613Z,3.97
2023-03-11T07:09:27.816Z,5.05
2023-03-11T07:11:54.528Z,10.05
2023-03-11T07:14:21.142Z,6.45
2023-03-11T07:16:47.878Z,5.15
2023-03-11T07:19:15.193Z,3.75
2023-03-11T07:21:42.046Z,4.55
2023-03-11T07:24:11.632Z,4.25
2023-03-11T07:26:38.266Z,3.97
2023-03-11T07:29:05.027Z,4.18
2023-03-11T07:31:34.088Z,6.13
2023-03-11T07:34:04.245Z,5.40
2023-03-11T07:36:31.384Z,6.22
2023-03-11T07:39:03.138Z,3.83
2023-03-11T07:41:33.282Z,4.03
2023-03-11T07:44:00.882Z,4.85
2023-03-11T07:46:28.993Z,3.88
2023-03-11T07:48:56.042Z,3.45
2023-03-11T07:51:26.062Z,3.13
2023-03-11T07:53:54.591Z,3.38
2023-03-11T07:56:23.747Z,2.28
2023-03-11T07:58:51.302Z,3.95
2023-03-11T08:01:20.884Z,3.28
2023-03-11T08:03:50.220Z,3.38
2023-03-11T08:06:22.737Z,4.78
2023-03-11T08:08:50.102Z,3.28
2023-03-11T08:11:17.775Z,3.22
2023-03-11T08:13:46.150Z,2.58
2023-03-11T08:16:15.801Z,3.63
2023-03-11T08:18:42.957Z,3.72
2023-03-11T08:21:12.406Z,2.70
2023-03-11T08:23:38.927Z,2.50
2023-03-11T08:26:07.365Z,3.20
2023-03-11T08:28:34.057Z,6.57
2023-03-11T08:31:01.146Z,2.83
2023-03-11T08:33:31.022Z,8.50
2023-03-11T08:35:57.627Z,3.33
2023-03-11T08:38:24.495Z,3.70
2023-03-11T08:40:51.027Z,2.47
2023-03-11T08:43:17.557Z,3.30
2023-03-11T08:45:44.350Z,2.92
2023-03-11T08:48:11.999Z,3.72
2023-03-11T08:50:53.471Z,3.25
2023-03-11T08:53:21.052Z,2.95
2023-03-11T08:55:47.534Z,7.25
2023-03-11T08:58:14.104Z,6.63
2023-03-11T09:00:40.718Z,3.65
2023-03-11T09:03:07.415Z,2.63
2023-03-11T09:05:34.011Z,3.60
2023-03-11T09:08:00.620Z,3.15
2023-03-11T09:10:27.289Z,1.92
2023-03-11T09:12:53.936Z,5.15
2023-03-11T09:15:20.833Z,4.60
2023-03-11T09:17:47.326Z,3.83
2023-03-11T09:20:15.294Z,3.08
2023-03-11T09:22:41.951Z,3.00
2023-03-11T09:25:11.957Z,3.72
2023-03-11T09:27:38.683Z,2.60
2023-03-11T09:30:06.037Z,2.08
2023-03-11T09:32:32.784Z,3.17
2023-03-11T09:35:00.255Z,2.25
2023-03-11T09:37:27.183Z,2.40
2023-03-11T09:39:53.789Z,3.30
2023-03-11T09:42:31.418Z,2.25
2023-03-11T09:45:03.761Z,3.58
2023-03-11T09:47:46.052Z,5.85
2023-03-11T09:50:20.334Z,2.85
2023-03-11T09:52:59.159Z,3.90
2023-03-11T09:55:41.703Z,2.30
2023-03-11T09:58:43.374Z,1.90
2023-03-11T10:01:18.139Z,1.50
2023-03-11T10:03:45.049Z,2.55
2023-03-11T10:06:22.019Z,2.90
2023-03-11T10:09:26.116Z,2.88
2023-03-11T10:12:20.189Z,2.10
2023-03-11T10:15:22.218Z,1.48
2023-03-11T10:18:13.250Z,2.35
2023-03-11T10:20:52.696Z,3.45
2023-03-11T10:23:49.944Z,3.30
2023-03-11T10:26:33.516Z,2.65
2023-03-11T10:29:21.855Z,2.15
2023-03-11T10:32:17.261Z,5.07
2023-03-11T10:34:50.720Z,2.28
2023-03-11T10:37:24.229Z,3.13
2023-03-11T10:39:51.619Z,2.67
2023-03-11T10:42:27.828Z,4.80
2023-03-11T10:44:54.373Z,5.30
2023-03-11T10:47:24.350Z,4.07
2023-03-11T10:49:52.545Z,3.50
2023-03-11T10:52:20.140Z,7.72
2023-03-11T10:54:58.578Z,6.55
2023-03-11T10:57:36.422Z,5.45
2023-03-11T11:00:17.416Z,6.18
2023-03-11T11:02:53.199Z,5.53
2023-03-11T11:05:22.623Z,6.13
2023-03-11T11:07:53.145Z,2.95
2023-03-11T11:10:27.328Z,4.93
2023-03-11T11:13:03.963Z,4.97
2023-03-11T11:15:35.317Z,3.97
2023-03-11T11:18:03.258Z,3.40
2023-03-11T11:20:30.909Z,6.82
2023-03-11T11:23:00.490Z,4.47
2023-03-11T11:25:35.527Z,4.65
2023-03-11T11:28:15.107Z,4.30
2023-03-11T11:30:54.092Z,6.70
2023-03-11T11:33:30.685Z,4.60
2023-03-11T11:36:01.518Z,4.72
2023-03-11T11:38:30.208Z,3.97
2023-03-11T11:41:01.723Z,5.00
2023-03-11T11:43:49.783Z,3.60
2023-03-11T11:46:21.111Z,3.58
2023-03-11T11:49:05.692Z,5.60
2023-03-11T11:51:37.243Z,8.27
2023-03-11T11:54:30.207Z,3.28
2023-03-11T11:56:58.464Z,3.30
2023-03-11T11:59:25.774Z,4.47
2023-03-11T12:02:11.078Z,4.40
2023-03-11T12:04:48.148Z,3.55
2023-03-11T12:07:26.750Z,4.30
2023-03-11T12:10:21.391Z,5.15
2023-03-11T12:13:13.556Z,3.60
2023-03-11T12:15:46.059Z,3.35
2023-03-11T12:18:35.323Z,5.10
2023-03-11T12:21:12.933Z,4.90
2023-03-11T12:24:13.302Z,6.50
2023-03-11T12:26:46.693Z,3.97
2023-03-11T12:29:37.462Z,4.13
2023-03-11T12:32:04.329Z,2.95
2023-03-11T12:34:35.307Z,4.45
2023-03-11T12:37:03.528Z,4.03
2023-03-11T12:39:33.691Z,4.25
2023-03-11T12:42:22.995Z,4.05
2023-03-11T12:44:50.000Z,4.68
2023-03-11T12:47:23.048Z,4.57
2023-03-11T12:49:55.030Z,5.10
2023-03-11T12:52:26.486Z,4.30
2023-03-11T12:54:59.343Z,12.02
2023-03-11T12:57:35.837Z,5.78
2023-03-11T13:00:26.646Z,4.72
2023-03-11T13:03:05.722Z,7.05
2023-03-11T13:05:44.938Z,6.72
2023-03-11T13:08:36.353Z,5.47
2023-03-11T13:11:34.854Z,4.85
2023-03-11T13:14:33.522Z,5.90
2023-03-11T13:17:30.933Z,5.78
2023-03-11T13:19:59.018Z,5.40
2023-03-11T13:22:58.528Z,6.45
2023-03-11T13:25:42.930Z,5.60
2023-03-11T13:28:29.529Z,5.07
2023-03-11T13:31:35.066Z,6.32
2023-03-11T13:34:13.906Z,5.47
2023-03-11T13:36:52.783Z,4.28
2023-03-11T13:39:31.941Z,5.40
2023-03-11T13:41:58.597Z,6.80
2023-03-11T13:44:29.781Z,5.05
2023-03-11T13:47:23.615Z,6.10
2023-03-11T13:50:26.114Z,5.13
2023-03-11T13:52:55.279Z,6.40
2023-03-11T13:55:28.789Z,7.28
2023-03-11T13:57:57.324Z,5.72
2023-03-11T14:00:28.544Z,6.03
2023-03-11T14:02:57.786Z,6.13
2023-03-11T14:05:33.391Z,5.78
2023-03-11T14:08:24.016Z,6.13
2023-03-11T14:10:55.042Z,5.45
2023-03-11T14:13:23.320Z,5.60
2023-03-11T14:15:58.561Z,6.72
2023-03-11T14:18:29.009Z,5.82
2023-03-11T14:20:56.620Z,6.60
2023-03-11T14:23:30.130Z,5.43
2023-03-11T14:26:02.541Z,3.90
2023-03-11T14:28:33.421Z,5.93
2023-03-11T14:31:02.032Z,4.63
2023-03-11T14:33:29.130Z,5.32
2023-03-11T14:35:58.482Z,6.25
2023-03-11T14:38:28.243Z,5.65
2023-03-11T14:41:05.339Z,5.43
2023-03-11T14:43:41.040Z,6.13
2023-03-11T14:46:08.797Z,6.22
2023-03-11T14:48:41.833Z,5.32
2023-03-11T14:51:19.722Z,5.18
2023-03-11T14:53:53.533Z,5.15
2023-03-11T14:56:24.039Z,6.18
2023-03-11T14:59:09.558Z,7.18
2023-03-11T15:01:42.497Z,5.85
2023-03-11T15:04:26.892Z,5.72
2023-03-11T15:06:55.130Z,5.55
2023-03-11T15:09:24.106Z,5.85
2023-03-11T15:12:01.952Z,6.18
2023-03-11T15:14:35.377Z,5.55
2023-03-11T15:17:37.417Z,6.18
2023-03-11T15:20:37.001Z,9.77
2023-03-11T15:23:06.053Z,6.53
2023-03-11T15:25:35.184Z,5.07
2023-03-11T15:28:38.600Z,6.40
2023-03-11T15:31:20.365Z,5.72
2023-03-11T15:33:47.702Z,6.65
2023-03-11T15:36:33.974Z,5.60
2023-03-11T15:39:18.306Z,4.68
2023-03-11T15:42:06.843Z,6.87
2023-03-11T15:44:36.237Z,4.70
2023-03-11T15:47:06.104Z,7.95
2023-03-11T15:49:33.952Z,6.03
2023-03-11T15:52:00.903Z,7.97
2023-03-11T15:54:27.891Z,11.05
2023-03-11T15:56:57.889Z,7.75
2023-03-11T15:59:24.499Z,6.43
2023-03-11T16:01:51.025Z,8.52
2023-03-11T16:04:19.461Z,6.75
2023-03-11T16:06:56.503Z,6.03
2023-03-11T16:09:31.660Z,8.55
2023-03-11T16:11:58.233Z,6.18
2023-03-11T16:14:24.934Z,5.35
2023-03-11T16:16:51.480Z,7.35
2023-03-11T16:19:18.076Z,6.65
2023-03-11T16:21:49.494Z,7.40
2023-03-11T16:24:20.915Z,7.95
2023-03-11T16:26:47.698Z,7.82
2023-03-11T16:29:19.362Z,10.60
2023-03-11T16:31:47.021Z,5.55
2023-03-11T16:34:13.604Z,6.65
2023-03-11T16:36:40.290Z,7.03
2023-03-11T16:39:06.911Z,6.25
2023-03-11T16:41:44.740Z,7.60
2023-03-11T16:44:12.136Z,12.35
2023-03-11T16:46:38.877Z,6.88
2023-03-11T16:49:05.693Z,6.22
2023-03-11T16:51:32.575Z,6.30
2023-03-11T16:53:59.739Z,6.32
2023-03-11T16:56:26.351Z,22.90
2023-03-11T16:58:52.926Z,8.45
2023-03-11T17:01:21.811Z,8.00
2023-03-11T17:03:50.839Z,7.38
2023-03-11T17:06:17.854Z,7.05
2023-03-11T17:08:49.341Z,8.35
2023-03-11T17:11:22.084Z,6.15
2023-03-11T17:13:50.580Z,6.75
2023-03-11T17:16:17.166Z,7.63
2023-03-11T17:18:43.736Z,7.30
2023-03-11T17:21:13.989Z,6.57
2023-03-11T17:23:41.114Z,6.72
2023-03-11T17:26:15.847Z,6.85
2023-03-11T17:28:43.479Z,6.55
2023-03-11T17:31:14.644Z,7.57
2023-03-11T17:33:41.368Z,8.90
2023-03-11T17:36:11.135Z,11.05
2023-03-11T17:38:37.633Z,7.50
2023-03-11T17:41:08.411Z,7.47
2023-03-11T17:43:35.034Z,10.05
2023-03-11T17:46:02.021Z,8.05
2023-03-11T17:48:28.569Z,7.38
2023-03-11T17:50:55.102Z,7.18
2023-03-11T17:53:21.609Z,6.72
2023-03-11T17:55:48.220Z,8.77
2023-03-11T17:58:14.810Z,8.00
2023-03-11T18:00:41.339Z,6.32
2023-03-11T18:03:07.901Z,6.35
2023-03-11T18:05:36.887Z,7.47
2023-03-11T18:08:03.768Z,9.93
2023-03-11T18:10:30.529Z,7.40
2023-03-11T18:12:57.094Z,8.45
2023-03-11T18:15:24.487Z,9.00
2023-03-11T18:17:51.148Z,21.73
2023-03-11T18:20:17.769Z,46.10
2023-03-11T18:22:46.719Z,64.22
2023-03-11T18:25:14.013Z,108.65
2023-03-11T18:27:40.955Z,85.53
2023-03-11T18:30:08.657Z,25.15
2023-03-11T18:32:35.264Z,12.07
2023-03-11T18:35:01.870Z,9.13
2023-03-11T18:37:32.954Z,8.13
2023-03-11T18:39:59.850Z,25.67
2023-03-11T18:42:26.492Z,17.08
2023-03-11T18:44:53.096Z,9.73
2023-03-11T18:47:19.792Z,9.95
2023-03-11T18:49:46.603Z,10.18
2023-03-11T18:52:13.153Z,10.27
2023-03-11T18:54:39.848Z,10.73
2023-03-11T18:57:06.535Z,8.00
2023-03-11T18:59:33.364Z,8.15
2023-03-11T19:01:59.959Z,9.25
2023-03-11T19:04:28.566Z,8.23
2023-03-11T19:06:55.118Z,6.70
2023-03-11T19:09:24.546Z,8.95
2023-03-11T19:11:51.043Z,9.48
2023-03-11T19:14:17.587Z,10.80
2023-03-11T19:16:44.281Z,6.80
2023-03-11T19:19:12.028Z,8.13
2023-03-11T19:21:38.862Z,7.82
2023-03-11T19:24:05.644Z,10.63
2023-03-11T19:26:44.263Z,8.23
2023-03-11T19:29:12.678Z,7.60
2023-03-11T19:31:39.352Z,7.80
2023-03-11T19:34:05.908Z,7.82
2023-03-11T19:36:32.554Z,12.10
2023-03-11T19:38:59.142Z,7.60
2023-03-11T19:41:25.823Z,9.75
2023-03-11T19:43:52.421Z,7.10
2023-03-11T19:46:23.081Z,11.02
2023-03-11T19:48:49.844Z,9.95
2023-03-11T19:51:17.580Z,7.93
2023-03-11T19:53:44.447Z,8.65
2023-03-11T19:56:14.607Z,8.52
2023-03-11T19:58:42.743Z,9.13
2023-03-11T20:01:16.627Z,10.52
2023-03-11T20:03:43.933Z,7.97
2023-03-11T20:06:11.479Z,9.20
2023-03-11T20:08:38.219Z,10.95
2023-03-11T20:11:06.039Z,12.80
2023-03-11T20:13:34.971Z,10.55
2023-03-11T20:16:10.227Z,9.73
2023-03-11T20:18:37.160Z,10.43
2023-03-11T20:21:08.709Z,10.90
2023-03-11T20:23:35.806Z,10.55
2023-03-11T20:26:12.017Z,12.02
2023-03-11T20:28:38.766Z,10.40
2023-03-11T20:31:09.798Z,12.15
2023-03-11T20:33:37.629Z,9.35
2023-03-11T20:36:08.480Z,8.63
2023-03-11T20:38:35.332Z,10.93
2023-03-11T20:41:05.905Z,10.75
2023-03-11T20:43:33.343Z,10.52
2023-03-11T20:46:03.920Z,11.82
2023-03-11T20:48:31.072Z,10.43
2023-03-11T20:51:06.821Z,9.30
2023-03-11T20:53:33.401Z,10.05
2023-03-11T20:56:10.951Z,13.13
2023-03-11T20:58:38.750Z,10.63
2023-03-11T21:01:23.792Z,13.27
2023-03-11T21:03:53.203Z,12.27
2023-03-11T21:06:22.644Z,13.07
2023-03-11T21:08:49.677Z,13.52
2023-03-11T21:11:17.452Z,11.02
2023-03-11T21:13:44.514Z,9.60
2023-03-11T21:16:11.202Z,11.02
2023-03-11T21:18:38.045Z,10.40
2023-03-11T21:21:08.387Z,12.07
2023-03-11T21:23:36.077Z,9.90
2023-03-11T21:26:05.038Z,10.50
2023-03-11T21:28:34.469Z,13.68
2023-03-11T21:31:06.551Z,11.48
2023-03-11T21:33:33.540Z,12.57
2023-03-11T21:36:01.197Z,9.25
2023-03-11T21:38:28.940Z,13.90
2023-03-11T21:41:06.867Z,12.35
2023-03-11T21:43:33.591Z,11.82
2023-03-11T21:46:00.883Z,14.30
2023-03-11T21:48:27.607Z,9.25
2023-03-11T21:50:54.301Z,11.65
2023-03-11T21:53:20.975Z,11.05
2023-03-11T21:55:47.724Z,10.80
2023-03-11T21:58:14.906Z,12.25
2023-03-11T22:00:41.606Z,14.30
2023-03-11T22:03:08.552Z,13.13
2023-03-11T22:05:35.399Z,11.20
2023-03-11T22:08:02.070Z,25.58
2023-03-11T22:10:28.598Z,12.40
2023-03-11T22:12:55.202Z,11.40
2023-03-11T22:15:21.864Z,14.45
2023-03-11T22:17:48.583Z,12.38
2023-03-11T22:20:15.271Z,13.60
2023-03-11T22:22:41.975Z,12.95
2023-03-11T22:25:08.936Z,12.75
2023-03-11T22:27:35.802Z,12.05
2023-03-11T22:30:02.581Z,14.90
2023-03-11T22:32:29.145Z,13.55
2023-03-11T22:34:55.723Z,13.02
2023-03-11T22:37:22.216Z,13.32
2023-03-11T22:39:48.845Z,12.60
2023-03-11T22:42:15.653Z,13.27
2023-03-11T22:44:42.221Z,13.00
2023-03-11T22:47:08.788Z,12.88
2023-03-11T22:49:35.338Z,13.68
2023-03-11T22:52:01.913Z,12.32
2023-03-11T22:54:28.544Z,11.88
2023-03-11T22:56:55.102Z,12.57
2023-03-11T22:59:21.674Z,13.32
2023-03-11T23:01:48.184Z,14.02
2023-03-11T23:04:14.884Z,12.52
2023-03-11T23:06:41.418Z,13.77
2023-03-11T23:09:07.980Z,12.55
2023-03-11T23:11:34.569Z,12.70
2023-03-11T23:14:01.170Z,11.75
2023-03-11T23:16:27.865Z,13.05
2023-03-11T23:18:55.848Z,13.13
2023-03-11T23:21:28.164Z,15.27
2023-03-11T23:23:55.101Z,12.27
2023-03-11T23:26:22.364Z,14.27
2023-03-11T23:28:51.185Z,11.27
2023-03-11T23:31:18.815Z,12.70
2023-03-11T23:33:45.622Z,11.45
2023-03-11T23:36:15.157Z,13.60
2023-03-11T23:38:41.818Z,12.45
2023-03-11T23:41:14.178Z,14.20
2023-03-11T23:43:41.173Z,14.15
2023-03-11T23:46:10.345Z,13.45
2023-03-11T23:48:38.059Z,12.85
2023-03-11T23:51:05.535Z,12.60
2023-03-11T23:53:32.897Z,12.63
2023-03-11T23:55:59.634Z,13.35
2023-03-11T23:58:26.252Z,15.15
